createdAt,value
2023-02-11T06:04:16.186Z,83.90
2023-02-11T06:09:19.803Z,84.00
2023-02-11T06:14:23.920Z,84.20
2023-02-11T06:19:29.085Z,84.30
2023-02-11T06:24:58.515Z,84.50
2023-02-11T06:29:56.355Z,84.00
2023-02-11T06:35:01.351Z,84.20
2023-02-11T06:40:05.433Z,84.70
2023-02-11T06:45:11.074Z,84.60
2023-02-11T06:50:16.437Z,84.90
2023-02-11T06:55:20.161Z,84.90
2023-02-11T07:00:23.979Z,84.70
2023-02-11T07:05:29.014Z,84.60
2023-02-11T07:10:32.917Z,84.90
2023-02-11T07:15:38.589Z,85.20
2023-02-11T07:20:44.084Z,85.40
2023-02-11T07:25:47.741Z,84.90
2023-02-11T07:30:51.446Z,84.90
2023-02-11T07:35:56.661Z,85.20
2023-02-11T07:41:02.246Z,85.30
2023-02-11T07:46:06.812Z,85.30
2023-02-11T07:51:14.300Z,85.20
2023-02-11T07:56:19.333Z,85.30
2023-02-11T08:01:25.921Z,85.10
2023-02-11T08:06:34.393Z,85.60
2023-02-11T08:11:38.222Z,85.40
2023-02-11T08:16:42.538Z,85.10
2023-02-11T08:21:47.456Z,84.70
2023-02-11T08:26:51.144Z,84.40
2023-02-11T08:31:54.851Z,84.10
2023-02-11T08:36:59.993Z,84.10
2023-02-11T08:42:03.668Z,84.20
2023-02-11T08:47:07.318Z,84.30
2023-02-11T08:52:12.474Z,84.10
2023-02-11T08:57:16.099Z,83.90
2023-02-11T09:02:19.713Z,83.50
2023-02-11T09:07:24.761Z,83.40
2023-02-11T09:12:28.540Z,83.20
2023-02-11T09:17:32.223Z,83.50
2023-02-11T09:22:37.434Z,83.60
2023-02-11T09:27:41.018Z,83.80
2023-02-11T09:32:44.696Z,83.50
2023-02-11T09:37:49.710Z,83.50
2023-02-11T09:43:03.026Z,83.40
2023-02-11T09:48:15.668Z,83.40
2023-02-11T09:53:25.167Z,82.80
2023-02-11T09:58:31.147Z,83.10
2023-02-11T10:03:47.522Z,84.00
2023-02-11T10:09:05.142Z,83.20
2023-02-11T10:14:29.484Z,83.30
2023-02-11T10:19:56.770Z,82.90
2023-02-11T10:25:07.259Z,83.60
2023-02-11T10:30:21.789Z,84.10
2023-02-11T10:35:27.278Z,83.20
2023-02-11T10:40:33.821Z,82.70
2023-02-11T10:45:40.612Z,82.00
2023-02-11T10:50:44.340Z,82.60
2023-02-11T10:55:55.806Z,82.60
2023-02-11T11:01:01.195Z,82.70
2023-02-11T11:06:09.258Z,83.00
2023-02-11T11:11:16.138Z,82.60
2023-02-11T11:16:23.273Z,81.30
2023-02-11T11:21:32.285Z,80.70
2023-02-11T11:26:44.769Z,80.10
2023-02-11T11:31:52.709Z,78.90
2023-02-11T11:36:57.936Z,77.00
2023-02-11T11:42:05.524Z,75.70
2023-02-11T11:47:23.458Z,75.20
2023-02-11T11:52:38.775Z,74.90
2023-02-11T11:57:45.091Z,70.50
2023-02-11T12:03:22.163Z,79.30
2023-02-11T12:08:32.565Z,68.70
2023-02-11T12:13:58.957Z,67.10
2023-02-11T12:19:46.304Z,66.00
2023-02-11T12:25:00.098Z,64.80
2023-02-11T12:30:18.186Z,62.10
2023-02-11T12:35:32.694Z,61.00
2023-02-11T12:40:44.778Z,60.90
2023-02-11T12:46:10.976Z,61.20
2023-02-11T12:51:25.389Z,59.80
2023-02-11T12:56:38.061Z,59.00
2023-02-11T13:01:46.073Z,58.60
2023-02-11T13:06:54.841Z,58.70
2023-02-11T13:12:21.923Z,59.00
2023-02-11T13:17:34.573Z,59.80
2023-02-11T13:22:43.399Z,59.80
2023-02-11T13:27:58.725Z,60.10
2023-02-11T13:33:32.845Z,60.20
2023-02-11T13:38:38.422Z,57.80
2023-02-11T13:48:52.669Z,56.40
2023-02-11T13:53:58.668Z,55.90
2023-02-11T13:59:05.550Z,55.50
2023-02-11T14:04:40.990Z,56.40
2023-02-11T14:15:26.289Z,54.70
2023-02-11T14:20:45.383Z,54.20
2023-02-11T14:26:04.309Z,54.60
2023-02-11T14:31:13.414Z,54.80
2023-02-11T14:36:36.953Z,55.10
2023-02-11T14:41:42.917Z,54.80
2023-02-11T14:46:48.669Z,55.40
2023-02-11T14:51:57.028Z,54.80
2023-02-11T14:57:10.241Z,55.50
2023-02-11T15:02:35.214Z,53.80
2023-02-11T15:07:45.823Z,54.20
2023-02-11T15:12:51.042Z,54.40
2023-02-11T15:17:55.345Z,54.50
2023-02-11T15:23:02.461Z,53.80
2023-02-11T15:28:21.024Z,54.50
2023-02-11T15:33:26.113Z,54.30
2023-02-11T15:38:31.401Z,55.40
2023-02-11T15:43:46.510Z,56.00
2023-02-11T15:48:52.389Z,55.70
2023-02-11T15:53:59.355Z,56.00
2023-02-11T15:59:13.877Z,56.30
2023-02-11T16:04:20.962Z,56.10
2023-02-11T16:09:34.585Z,56.70
2023-02-11T16:14:39.389Z,57.00
2023-02-11T16:19:46.322Z,57.30
2023-02-11T16:24:54.245Z,57.70
2023-02-11T16:29:58.960Z,57.90
2023-02-11T16:35:12.009Z,58.40
2023-02-11T16:40:17.301Z,58.50
2023-02-11T16:45:21.058Z,58.90
2023-02-11T16:50:26.618Z,59.30
2023-02-11T16:55:32.609Z,59.40
2023-02-11T17:00:37.476Z,59.70
2023-02-11T17:05:58.319Z,59.90
2023-02-11T17:11:03.776Z,60.20
2023-02-11T17:16:11.051Z,60.40
2023-02-11T17:21:15.406Z,60.40
2023-02-11T17:26:20.495Z,60.70
2023-02-11T17:31:24.616Z,61.00
2023-02-11T17:36:28.330Z,61.20
2023-02-11T17:41:34.241Z,61.60
2023-02-11T17:46:37.960Z,62.00
2023-02-11T17:51:41.705Z,62.30
2023-02-11T17:56:50.545Z,62.60
2023-02-11T18:01:54.492Z,63.00
2023-02-11T18:06:58.734Z,63.20
2023-02-11T18:12:03.958Z,63.50
2023-02-11T18:17:08.002Z,63.80
2023-02-11T18:22:11.662Z,63.80
2023-02-11T18:27:16.778Z,64.20
2023-02-11T18:32:20.432Z,64.60
2023-02-11T18:37:24.202Z,64.50
2023-02-11T18:42:29.485Z,64.70
2023-02-11T18:47:33.356Z,65.10
2023-02-11T18:52:38.496Z,65.10
2023-02-11T18:57:44.039Z,65.60
2023-02-11T19:02:47.755Z,65.70
2023-02-11T19:07:51.443Z,65.70
2023-02-11T19:12:58.943Z,65.90
2023-02-11T19:18:04.976Z,66.00
2023-02-11T19:23:08.697Z,66.20
2023-02-11T19:28:14.080Z,66.30
2023-02-11T19:33:17.894Z,66.30
2023-02-11T19:38:21.904Z,66.50
2023-02-11T19:43:27.095Z,66.80
2023-02-11T19:48:30.848Z,67.10
2023-02-11T19:53:34.494Z,67.40
2023-02-11T19:58:40.778Z,67.80
2023-02-11T20:03:44.700Z,67.90
2023-02-11T20:08:48.447Z,68.10
2023-02-11T20:13:53.628Z,68.20
2023-02-11T20:18:57.449Z,68.70
2023-02-11T20:24:01.325Z,69.10
2023-02-11T20:29:06.613Z,69.10
2023-02-11T20:34:11.261Z,69.30
2023-02-11T20:39:17.205Z,69.40
2023-02-11T20:44:22.872Z,69.30
2023-02-11T20:49:28.275Z,69.60
2023-02-11T20:54:32.045Z,69.60
2023-02-11T20:59:37.217Z,69.80
2023-02-11T21:04:41.079Z,70.00
2023-02-11T21:09:44.721Z,70.10
2023-02-11T21:14:49.877Z,69.90
2023-02-11T21:19:53.579Z,70.20
2023-02-11T21:24:57.288Z,70.20
2023-02-11T21:30:02.610Z,70.20
2023-02-11T21:35:07.460Z,70.30
2023-02-11T21:40:11.906Z,70.40
2023-02-11T21:45:17.404Z,70.40
2023-02-11T21:50:21.280Z,70.60
2023-02-11T21:55:25.493Z,70.70
2023-02-11T22:00:35.374Z,71.00
2023-02-11T22:05:41.426Z,70.70
2023-02-11T22:10:45.156Z,70.90
2023-02-11T22:16:00.393Z,71.00
2023-02-11T22:21:06.926Z,71.30
2023-02-11T22:26:13.075Z,71.40
2023-02-11T22:31:21.201Z,71.30
2023-02-11T22:36:27.000Z,71.40
2023-02-11T22:41:31.208Z,71.50
2023-02-11T22:46:36.245Z,71.40
2023-02-11T22:51:40.496Z,71.50
2023-02-11T22:56:44.022Z,71.60
2023-02-11T23:01:49.395Z,71.70
2023-02-11T23:06:53.056Z,71.50
2023-02-11T23:11:57.887Z,71.60
2023-02-11T23:17:02.901Z,71.80
2023-02-11T23:22:06.548Z,71.90
2023-02-11T23:27:10.198Z,72.00
